Time;durP1;ratioP1;P1;durP2;ratioP2;P2;SDS_P1;SDS_P2;PMS_P1;PMS_P2;Temp;Humidity;BMP_temperature;BMP_pressure;BME280_temperature;BME280_humidity;BME280_pressure;Samples;Min_cycle;Max_cycle;Signal;HPM_P1;HPM_P2
2021/10/30 00:01:06;;;;;;;11.65;6.63;;;13.30;99.90;;;;;;5095462;28;20031;-83
2021/10/30 00:03:31;;;;;;;10.52;6.72;;;13.30;99.90;;;;;;5095829;28;20028;-85
2021/10/30 00:05:57;;;;;;;9.23;5.95;;;13.30;99.90;;;;;;5077357;28;20028;-84
2021/10/30 00:08:24;;;;;;;12.15;6.63;;;13.30;99.90;;;;;;5095643;28;20051;-84
2021/10/30 00:10:50;;;;;;;11.00;6.30;;;13.30;99.90;;;;;;5076134;28;20499;-85
2021/10/30 00:13:16;;;;;;;10.82;6.78;;;13.30;99.90;;;;;;5077624;28;20032;-83
2021/10/30 00:15:45;;;;;;;11.50;6.55;;;13.30;99.90;;;;;;5077269;28;20028;-85
2021/10/30 00:18:10;;;;;;;12.98;6.72;;;13.30;99.90;;;;;;5060579;28;20027;-85
2021/10/30 00:20:36;;;;;;;9.55;6.50;;;13.20;99.90;;;;;;5077482;28;20380;-85
2021/10/30 00:23:02;;;;;;;11.63;6.60;;;13.30;99.90;;;;;;5077730;28;20032;-85
2021/10/30 00:25:28;;;;;;;12.80;7.18;;;13.20;99.90;;;;;;5060682;28;20035;-85
2021/10/30 00:27:54;;;;;;;11.52;6.65;;;13.20;99.90;;;;;;5096342;28;20118;-85
2021/10/30 00:30:20;;;;;;;11.80;6.40;;;13.20;99.90;;;;;;5077693;28;20059;-85
2021/10/30 00:32:46;;;;;;;10.02;6.30;;;13.20;99.90;;;;;;5060786;28;20496;-85
2021/10/30 00:35:11;;;;;;;10.90;6.55;;;13.10;99.90;;;;;;5078749;28;20076;-85
2021/10/30 00:37:37;;;;;;;10.48;6.25;;;13.20;99.90;;;;;;5062356;28;20217;-84
2021/10/30 00:40:05;;;;;;;9.70;6.10;;;13.10;99.90;;;;;;5096722;28;20051;-83
2021/10/30 00:42:31;;;;;;;12.30;6.72;;;13.10;99.90;;;;;;5078373;28;20064;-86
2021/10/30 00:44:56;;;;;;;11.38;6.93;;;13.10;99.90;;;;;;5062507;28;20035;-85
2021/10/30 00:47:22;;;;;;;11.02;6.68;;;13.10;99.90;;;;;;5098327;28;20054;-85
2021/10/30 00:49:48;;;;;;;11.05;6.20;;;13.00;99.90;;;;;;5097281;28;20480;-85
2021/10/30 00:52:15;;;;;;;12.95;6.35;;;13.00;99.90;;;;;;5080657;28;20367;-84
2021/10/30 00:54:43;;;;;;;12.55;6.90;;;13.10;99.90;;;;;;5080474;28;20158;-85
2021/10/30 00:57:10;;;;;;;11.32;7.03;;;13.00;99.90;;;;;;5079685;28;20028;-84
2021/10/30 00:59:36;;;;;;;12.63;6.43;;;13.00;99.90;;;;;;5079617;28;20035;-85
2021/10/30 01:02:03;;;;;;;10.57;6.32;;;13.00;99.90;;;;;;5081110;28;20107;-85
2021/10/30 01:04:30;;;;;;;12.38;5.90;;;13.00;99.90;;;;;;5063531;28;20024;-85
2021/10/30 01:06:58;;;;;;;10.40;6.07;;;13.00;99.90;;;;;;5093234;28;20506;-84
2021/10/30 01:09:24;;;;;;;8.65;5.40;;;13.00;99.90;;;;;;5072540;28;20046;-83
2021/10/30 01:11:52;;;;;;;8.85;5.00;;;13.00;99.90;;;;;;5073049;28;20035;-82
2021/10/30 01:14:19;;;;;;;9.55;5.68;;;13.00;99.90;;;;;;5056382;28;20461;-83
2021/10/30 01:16:58;;;;;;;7.68;5.13;;;13.00;99.90;;;;;;5091188;28;20020;-84
2021/10/30 01:19:25;;;;;;;11.48;5.60;;;13.10;99.90;;;;;;5072593;28;20085;-84
2021/10/30 01:21:51;;;;;;;8.80;5.25;;;13.00;99.90;;;;;;5073118;28;20032;-83
2021/10/30 01:24:17;;;;;;;8.48;5.25;;;13.00;99.90;;;;;;5073312;28;20420;-84
2021/10/30 01:26:43;;;;;;;11.52;5.47;;;13.00;99.90;;;;;;5091039;28;20064;-84
2021/10/30 01:29:08;;;;;;;8.73;5.00;;;13.10;99.90;;;;;;5072778;28;20172;-83
2021/10/30 01:31:34;;;;;;;9.65;5.43;;;13.00;99.90;;;;;;5073067;28;20388;-83
2021/10/30 01:34:05;;;;;;;8.50;5.57;;;13.00;99.90;;;;;;5073045;28;20038;-83
2021/10/30 01:36:31;;;;;;;8.32;5.00;;;13.10;99.90;;;;;;5073332;28;20465;-84
2021/10/30 01:38:57;;;;;;;9.10;5.10;;;13.10;99.90;;;;;;5072901;28;20020;-83
2021/10/30 01:41:24;;;;;;;11.55;5.03;;;13.00;99.90;;;;;;5073063;28;20055;-83
2021/10/30 01:43:51;;;;;;;7.90;4.90;;;13.00;99.90;;;;;;5076995;28;20035;-83
2021/10/30 01:46:18;;;;;;;8.82;5.20;;;13.10;99.90;;;;;;5077017;28;20396;-82
2021/10/30 01:48:45;;;;;;;9.13;5.10;;;13.10;99.90;;;;;;5077596;28;20040;-83
2021/10/30 01:51:11;;;;;;;8.40;5.05;;;13.10;99.90;;;;;;5095102;28;20457;-84
2021/10/30 01:53:37;;;;;;;9.38;5.03;;;13.10;99.90;;;;;;5060437;28;20040;-83
2021/10/30 01:56:03;;;;;;;9.15;5.15;;;13.10;99.90;;;;;;5076869;28;20453;-82
2021/10/30 01:58:29;;;;;;;8.30;4.43;;;13.10;99.90;;;;;;5094591;28;20111;-83
2021/10/30 02:00:56;;;;;;;7.28;4.15;;;13.10;99.90;;;;;;5075887;28;20053;-83
2021/10/30 02:03:23;;;;;;;7.60;4.50;;;13.10;99.90;;;;;;5076402;28;20051;-82
2021/10/30 02:05:53;;;;;;;8.30;4.35;;;13.20;99.90;;;;;;5076419;28;20035;-83
2021/10/30 02:08:19;;;;;;;7.68;4.47;;;13.20;99.90;;;;;;5093004;28;20690;-83
2021/10/30 02:10:45;;;;;;;7.25;4.85;;;13.20;99.90;;;;;;5075352;28;20142;-83
2021/10/30 02:13:12;;;;;;;9.55;4.80;;;13.20;99.90;;;;;;5094419;28;20047;-83
2021/10/30 02:15:38;;;;;;;7.93;4.38;;;13.20;99.90;;;;;;5094440;28;20464;-83
2021/10/30 02:18:05;;;;;;;8.10;4.35;;;13.20;99.90;;;;;;5059795;28;20028;-83
2021/10/30 02:20:32;;;;;;;7.97;4.43;;;13.20;99.90;;;;;;5094115;28;20110;-83
2021/10/30 02:22:58;;;;;;;7.93;4.20;;;13.20;99.90;;;;;;5060018;28;20492;-82
2021/10/30 02:25:23;;;;;;;8.02;4.20;;;13.20;99.90;;;;;;5094741;28;20020;-82
2021/10/30 02:27:52;;;;;;;9.23;4.50;;;13.20;99.90;;;;;;5059885;28;20488;-84
2021/10/30 02:30:18;;;;;;;9.07;4.60;;;13.20;99.90;;;;;;5075851;28;20510;-83
2021/10/30 02:32:45;;;;;;;6.88;3.90;;;13.20;99.90;;;;;;5095113;28;20024;-83
2021/10/30 02:35:12;;;;;;;11.10;4.28;;;13.20;99.90;;;;;;5059455;28;20042;-84
2021/10/30 02:37:38;;;;;;;6.82;4.22;;;13.20;99.90;;;;;;5076628;28;20188;-83
2021/10/30 02:40:06;;;;;;;8.20;4.28;;;13.20;99.90;;;;;;5075788;28;20031;-84
2021/10/30 02:42:32;;;;;;;9.32;4.25;;;13.30;99.90;;;;;;5060011;28;20022;-83
2021/10/30 02:45:00;;;;;;;6.55;3.92;;;13.20;99.90;;;;;;5060393;28;20085;-83
2021/10/30 02:47:26;;;;;;;8.20;3.97;;;13.30;99.90;;;;;;5073789;22;20063;-86
2021/10/30 02:49:52;;;;;;;7.30;4.32;;;13.20;99.90;;;;;;5051129;28;20120;-86
2021/10/30 02:52:18;;;;;;;7.35;4.03;;;13.30;99.90;;;;;;5051185;28;20198;-85
2021/10/30 02:54:44;;;;;;;8.18;3.90;;;13.30;99.90;;;;;;5050721;28;20039;-85
2021/10/30 02:57:11;;;;;;;7.53;3.90;;;13.30;99.90;;;;;;5067345;28;20037;-86
2021/10/30 02:59:37;;;;;;;5.68;3.90;;;13.30;99.90;;;;;;5067579;28;20017;-86
2021/10/30 03:02:04;;;;;;;7.15;3.83;;;13.30;99.90;;;;;;5034951;28;20033;-85
2021/10/30 03:04:30;;;;;;;7.35;4.18;;;13.30;99.90;;;;;;5052897;28;20474;-84
2021/10/30 03:06:56;;;;;;;7.68;3.53;;;13.30;99.90;;;;;;5029942;28;20032;-84
2021/10/30 03:09:21;;;;;;;6.22;3.90;;;13.30;99.90;;;;;;5035313;28;20040;-83
2021/10/30 03:11:47;;;;;;;6.82;3.85;;;13.40;99.90;;;;;;5069479;28;20469;-84
2021/10/30 03:14:13;;;;;;;9.07;4.25;;;13.30;99.90;;;;;;5051554;28;20388;-84
2021/10/30 03:16:39;;;;;;;6.00;3.63;;;13.40;99.90;;;;;;5051276;28;20033;-84
2021/10/30 03:19:05;;;;;;;6.75;3.88;;;13.40;99.90;;;;;;5034068;28;20083;-84
2021/10/30 03:21:30;;;;;;;6.80;4.10;;;13.40;99.90;;;;;;5034667;28;20033;-83
2021/10/30 03:23:56;;;;;;;6.05;3.28;;;13.40;99.90;;;;;;5034610;28;20037;-84
2021/10/30 03:26:23;;;;;;;6.10;3.70;;;13.40;99.90;;;;;;5050856;28;20029;-84
2021/10/30 03:28:48;;;;;;;6.53;4.03;;;13.40;99.90;;;;;;5034296;28;20077;-84
2021/10/30 03:31:14;;;;;;;8.18;4.15;;;13.40;99.90;;;;;;5033935;28;20029;-84
2021/10/30 03:33:40;;;;;;;5.72;3.30;;;13.40;99.90;;;;;;5034361;28;20032;-84
2021/10/30 03:36:06;;;;;;;7.18;3.65;;;13.40;99.90;;;;;;5034882;28;20116;-84
2021/10/30 03:38:32;;;;;;;9.05;3.70;;;13.40;99.90;;;;;;5034441;28;20111;-84
2021/10/30 03:40:57;;;;;;;5.68;3.38;;;13.40;99.90;;;;;;5033875;28;20021;-84
2021/10/30 03:43:23;;;;;;;6.03;3.65;;;13.40;99.90;;;;;;5067465;28;20438;-84
2021/10/30 03:45:51;;;;;;;5.68;3.25;;;13.40;99.90;;;;;;5034499;28;20107;-84
2021/10/30 03:48:20;;;;;;;6.90;3.40;;;13.50;99.90;;;;;;5067203;28;20033;-85
2021/10/30 03:50:47;;;;;;;8.43;3.70;;;13.50;99.90;;;;;;5050030;28;20041;-84
2021/10/30 03:53:13;;;;;;;8.30;3.67;;;13.50;99.90;;;;;;5034106;28;20040;-84
2021/10/30 03:55:40;;;;;;;8.82;3.80;;;13.50;99.90;;;;;;5050472;28;20072;-86
2021/10/30 03:58:06;;;;;;;5.50;3.33;;;13.50;99.90;;;;;;5033981;28;20146;-85
2021/10/30 04:00:33;;;;;;;6.18;3.42;;;13.50;99.90;;;;;;5051151;28;20058;-84
2021/10/30 04:02:59;;;;;;;7.57;3.97;;;13.50;99.90;;;;;;5033646;28;20033;-85
2021/10/30 04:05:25;;;;;;;8.00;3.42;;;13.50;99.90;;;;;;5050118;28;20078;-84
2021/10/30 04:07:51;;;;;;;6.38;3.60;;;13.50;99.90;;;;;;5033647;28;20115;-84
2021/10/30 04:10:17;;;;;;;7.43;3.70;;;13.50;99.90;;;;;;5033497;28;20510;-85
2021/10/30 04:12:42;;;;;;;5.28;3.50;;;13.50;99.90;;;;;;5034994;28;20033;-84
2021/10/30 04:15:08;;;;;;;6.03;3.60;;;13.50;99.90;;;;;;5034675;28;20025;-84
2021/10/30 04:17:34;;;;;;;6.43;3.75;;;13.50;99.90;;;;;;5067342;28;20401;-84
2021/10/30 04:20:00;;;;;;;6.13;3.50;;;13.50;99.90;;;;;;5050224;28;20043;-84
2021/10/30 04:22:26;;;;;;;8.50;4.00;;;13.50;99.90;;;;;;5052523;28;20413;-85
2021/10/30 04:24:53;;;;;;;5.63;3.20;;;13.50;99.90;;;;;;5051439;28;20029;-85
2021/10/30 04:27:19;;;;;;;6.05;4.03;;;13.50;99.90;;;;;;5067001;28;20028;-84
2021/10/30 04:29:44;;;;;;;7.50;3.80;;;13.40;99.90;;;;;;5066514;28;20106;-84
2021/10/30 04:32:12;;;;;;;8.63;3.58;;;13.40;99.90;;;;;;5067620;28;20112;-84
2021/10/30 04:34:46;;;;;;;5.75;3.72;;;13.40;99.90;;;;;;5067528;28;20048;-85
2021/10/30 04:37:15;;;;;;;7.85;4.28;;;13.30;99.90;;;;;;5050500;28;20037;-84
2021/10/30 04:39:45;;;;;;;;;;;13.30;99.90;;;;;;5049967;28;20052;-84
2021/10/30 04:42:12;;;;;;;6.75;4.13;;;13.30;99.90;;;;;;5050819;28;19944;-85
2021/10/30 04:44:38;;;;;;;6.88;4.53;;;13.30;99.90;;;;;;5067567;28;20021;-84
2021/10/30 04:47:04;;;;;;;6.55;4.15;;;13.20;99.90;;;;;;5066625;28;20036;-85
2021/10/30 04:49:30;;;;;;;6.72;4.10;;;13.20;99.90;;;;;;5066260;28;20175;-84
2021/10/30 04:51:56;;;;;;;8.10;4.40;;;13.10;99.90;;;;;;5033613;28;20033;-84
2021/10/30 04:54:22;;;;;;;9.85;4.28;;;13.10;99.90;;;;;;5033871;28;20074;-85
2021/10/30 04:56:57;;;;;;;9.95;4.75;;;13.00;99.90;;;;;;5051548;28;20075;-85
2021/10/30 04:59:22;;;;;;;7.90;4.32;;;13.10;99.90;;;;;;5032694;28;20044;-85
2021/10/30 05:01:49;;;;;;;8.20;4.65;;;13.00;99.90;;;;;;5033394;28;20063;-85
2021/10/30 05:04:17;;;;;;;9.27;4.30;;;13.00;99.90;;;;;;5033309;28;20120;-86
2021/10/30 05:06:43;;;;;;;9.20;4.30;;;12.90;99.90;;;;;;5034367;28;20098;-85
2021/10/30 05:09:09;;;;;;;9.05;5.38;;;12.90;99.90;;;;;;5048942;28;20373;-85
2021/10/30 05:11:35;;;;;;;8.35;4.63;;;12.90;99.90;;;;;;5049646;28;20033;-84
2021/10/30 05:14:01;;;;;;;8.50;4.57;;;12.90;99.90;;;;;;5050028;28;20051;-86
2021/10/30 05:16:30;;;;;;;9.75;4.68;;;12.90;99.90;;;;;;5049940;28;20061;-86
2021/10/30 05:18:56;;;;;;;8.98;5.30;;;12.80;99.90;;;;;;5036375;28;20055;-84
2021/10/30 05:21:21;;;;;;;10.15;5.10;;;12.80;99.90;;;;;;5070474;28;20029;-87
2021/10/30 05:23:47;;;;;;;12.30;5.07;;;12.80;99.90;;;;;;5037198;28;20296;-86
2021/10/30 05:26:13;;;;;;;9.00;5.07;;;12.80;99.90;;;;;;5053389;28;20098;-86
2021/10/30 05:28:38;;;;;;;8.68;4.78;;;12.70;99.90;;;;;;5036759;28;20094;-86
2021/10/30 05:31:04;;;;;;;8.50;4.68;;;12.80;99.90;;;;;;5069671;28;20033;-86
2021/10/30 05:33:31;;;;;;;8.15;4.28;;;12.70;99.90;;;;;;5036599;28;20082;-86
2021/10/30 05:36:12;;;;;;;8.93;4.72;;;12.70;99.90;;;;;;5055810;28;20527;-84
2021/10/30 05:38:54;;;;;;;13.15;5.28;;;12.70;99.90;;;;;;5038437;28;20451;-84
2021/10/30 05:41:20;;;;;;;10.32;4.85;;;12.70;99.90;;;;;;5036573;28;20558;-84
2021/10/30 05:43:47;;;;;;;10.82;5.20;;;12.70;99.90;;;;;;5053448;28;20060;-85
2021/10/30 05:46:12;;;;;;;8.75;4.57;;;12.70;99.90;;;;;;5052881;28;20465;-84
2021/10/30 05:48:38;;;;;;;8.27;4.53;;;12.70;99.90;;;;;;5069736;28;20040;-84
2021/10/30 05:51:07;;;;;;;8.05;4.70;;;12.70;99.90;;;;;;5052379;28;20059;-86
2021/10/30 05:53:33;;;;;;;8.85;4.85;;;12.70;99.90;;;;;;5054463;28;20025;-86
2021/10/30 05:56:03;;;;;;;9.63;5.45;;;12.80;99.90;;;;;;5036284;28;20037;-86
2021/10/30 05:58:28;;;;;;;9.60;6.50;;;12.80;99.90;;;;;;5036112;28;20032;-84
2021/10/30 06:00:54;;;;;;;9.30;5.15;;;12.80;99.90;;;;;;5035324;28;20048;-84
2021/10/30 06:03:20;;;;;;;9.10;4.88;;;12.80;99.90;;;;;;5052511;28;20157;-84
2021/10/30 06:05:46;;;;;;;8.20;4.68;;;12.80;99.90;;;;;;5053700;28;20450;-84
2021/10/30 06:08:11;;;;;;;8.68;4.63;;;12.80;99.90;;;;;;5069477;28;20090;-83
2021/10/30 06:10:37;;;;;;;9.00;5.20;;;12.70;99.90;;;;;;5035440;28;20029;-84
2021/10/30 06:13:03;;;;;;;8.90;4.65;;;12.60;99.90;;;;;;5036215;28;20115;-84
2021/10/30 06:15:28;;;;;;;7.90;4.85;;;12.60;99.90;;;;;;5052580;28;20021;-84
2021/10/30 06:17:54;;;;;;;9.57;4.70;;;12.60;99.90;;;;;;5068832;28;20029;-84
2021/10/30 06:20:20;;;;;;;9.60;4.72;;;12.50;99.90;;;;;;5051976;28;20029;-84
2021/10/30 06:22:46;;;;;;;7.68;5.03;;;12.50;99.90;;;;;;5052600;28;20029;-84
2021/10/30 06:25:17;;;;;;;8.18;4.97;;;12.60;99.90;;;;;;5052744;28;20059;-84
2021/10/30 06:27:52;;;;;;;9.27;5.20;;;12.50;99.90;;;;;;5035309;28;20037;-84
2021/10/30 06:30:52;;;;;;;7.97;4.80;;;12.50;99.90;;;;;;5021787;28;20049;-84
2021/10/30 06:33:50;;;;;;;7.32;4.80;;;12.50;99.90;;;;;;5052616;28;20040;-84
2021/10/30 06:36:29;;;;;;;10.43;4.72;;;12.60;99.90;;;;;;5050461;28;20099;-84
2021/10/30 06:39:19;;;;;;;7.93;4.70;;;12.60;99.90;;;;;;5054035;28;20540;-84
2021/10/30 06:42:20;;;;;;;8.18;5.07;;;12.70;99.90;;;;;;5035453;28;20434;-84
2021/10/30 06:45:10;;;;;;;8.65;4.38;;;12.70;99.90;;;;;;5047851;28;20056;-84
2021/10/30 06:48:28;;;;;;;7.43;4.50;;;12.70;99.90;;;;;;5052368;28;20516;-84
2021/10/30 06:58:37;;;;;;;10.18;4.80;;;12.70;99.90;;;;;;5053618;28;20058;-84
2021/10/30 07:01:04;;;;;;;7.82;4.55;;;12.80;99.90;;;;;;5050639;28;20473;-84
2021/10/30 07:03:30;;;;;;;8.88;4.63;;;12.80;99.90;;;;;;5068275;28;20067;-84
2021/10/30 07:05:56;;;;;;;7.63;4.68;;;12.80;99.90;;;;;;5052880;28;20029;-85
2021/10/30 07:08:21;;;;;;;8.60;4.50;;;12.80;99.90;;;;;;5067788;28;20105;-84
2021/10/30 07:10:47;;;;;;;9.10;4.25;;;12.80;99.90;;;;;;5052000;28;20032;-84
2021/10/30 07:13:13;;;;;;;7.75;4.65;;;12.80;99.90;;;;;;5051719;28;20048;-84
2021/10/30 07:15:38;;;;;;;8.52;4.80;;;12.80;99.90;;;;;;5051287;28;20040;-84
2021/10/30 07:18:04;;;;;;;7.40;4.22;;;12.80;99.90;;;;;;5035042;28;20043;-84
2021/10/30 07:20:30;;;;;;;9.30;4.75;;;12.80;99.90;;;;;;5052576;28;20107;-84
2021/10/30 07:22:56;;;;;;;6.88;4.25;;;12.80;99.90;;;;;;5052604;28;20580;-84
2021/10/30 07:25:22;;;;;;;8.80;5.82;;;12.90;99.90;;;;;;5052949;28;20116;-84
2021/10/30 07:27:49;;;;;;;9.63;4.85;;;12.80;99.90;;;;;;5034996;28;20037;-84
2021/10/30 07:30:16;;;;;;;9.55;6.07;;;12.90;99.90;;;;;;5068168;28;20033;-84
2021/10/30 07:32:43;;;;;;;9.27;5.32;;;12.90;99.90;;;;;;5067884;28;20033;-84
2021/10/30 07:35:10;;;;;;;9.98;6.80;;;12.90;99.90;;;;;;5035126;28;20033;-85
2021/10/30 07:37:36;;;;;;;8.20;5.78;;;12.80;99.90;;;;;;5034717;28;20477;-85
2021/10/30 07:40:04;;;;;;;10.07;6.28;;;12.80;99.90;;;;;;5051662;28;20048;-85
2021/10/30 07:42:30;;;;;;;9.93;5.72;;;12.80;99.90;;;;;;5034664;28;20039;-85
2021/10/30 07:44:56;;;;;;;9.65;4.80;;;12.80;99.90;;;;;;5051791;28;20029;-84
2021/10/30 07:47:22;;;;;;;8.73;4.95;;;12.80;99.90;;;;;;5053867;28;20036;-85
2021/10/30 07:49:48;;;;;;;10.85;6.45;;;12.80;99.90;;;;;;5052090;28;20029;-84
2021/10/30 07:52:14;;;;;;;9.75;6.38;;;12.80;99.90;;;;;;5052317;28;20025;-85
2021/10/30 07:54:39;;;;;;;10.05;6.57;;;12.80;99.90;;;;;;5068720;28;20457;-84
2021/10/30 07:57:07;;;;;;;11.95;6.18;;;12.80;99.90;;;;;;5051920;28;20394;-84
2021/10/30 07:59:33;;;;;;;8.23;5.32;;;12.80;99.90;;;;;;5033556;28;20489;-85
2021/10/30 08:02:00;;;;;;;7.32;4.70;;;12.80;99.90;;;;;;5034064;28;20047;-84
2021/10/30 08:04:27;;;;;;;9.10;6.45;;;12.80;99.90;;;;;;5034141;28;20047;-85
2021/10/30 08:06:52;;;;;;;10.73;6.97;;;12.80;99.90;;;;;;5050658;28;20515;-85
2021/10/30 08:09:18;;;;;;;13.85;9.23;;;12.80;99.90;;;;;;5033327;28;20025;-85
2021/10/30 08:11:44;;;;;;;20.45;12.88;;;12.80;99.90;;;;;;5033841;28;20525;-85
2021/10/30 08:14:10;;;;;;;18.92;13.55;;;12.80;99.90;;;;;;5034098;28;20033;-85
2021/10/30 08:16:36;;;;;;;13.68;10.25;;;12.80;99.90;;;;;;5050640;28;20473;-87
2021/10/30 08:19:03;;;;;;;12.43;8.18;;;12.80;99.90;;;;;;5017968;28;20031;-86
2021/10/30 08:21:29;;;;;;;11.88;7.03;;;12.80;99.90;;;;;;5030930;28;20423;-87
2021/10/30 08:23:57;;;;;;;12.55;6.65;;;12.80;99.90;;;;;;5030479;28;20033;-84
2021/10/30 08:26:23;;;;;;;8.60;4.85;;;12.80;99.90;;;;;;5030080;28;20029;-84
2021/10/30 08:28:49;;;;;;;7.32;5.05;;;12.90;99.90;;;;;;5029934;28;20033;-84
2021/10/30 08:31:15;;;;;;;6.70;4.60;;;12.80;99.90;;;;;;5029732;28;20030;-84
2021/10/30 08:33:41;;;;;;;8.43;4.82;;;12.90;99.90;;;;;;5030262;28;20082;-85
2021/10/30 08:36:07;;;;;;;7.68;4.60;;;12.90;99.90;;;;;;5029960;28;20053;-84
2021/10/30 08:38:34;;;;;;;7.55;4.53;;;12.90;99.90;;;;;;5030071;28;20036;-84
2021/10/30 08:41:01;;;;;;;10.02;5.22;;;12.90;99.90;;;;;;5046005;28;20068;-85
2021/10/30 08:43:27;;;;;;;7.97;4.88;;;12.90;99.90;;;;;;5030254;28;20028;-85
2021/10/30 08:45:55;;;;;;;11.55;4.78;;;13.00;99.90;;;;;;5014599;28;20072;-84
2021/10/30 08:48:21;;;;;;;6.03;4.03;;;12.90;99.90;;;;;;5031709;28;20114;-84
2021/10/30 08:50:49;;;;;;;9.50;4.82;;;13.00;99.90;;;;;;5050251;28;20115;-84
2021/10/30 08:53:14;;;;;;;8.18;4.88;;;13.00;99.90;;;;;;5048744;28;20649;-83
2021/10/30 08:55:40;;;;;;;9.70;5.03;;;13.00;99.90;;;;;;5032700;28;20171;-85
2021/10/30 08:58:09;;;;;;;7.20;4.72;;;13.10;99.90;;;;;;5049129;28;20386;-83
2021/10/30 09:00:44;;;;;;;9.10;5.32;;;13.10;99.90;;;;;;5048542;28;20029;-84
2021/10/30 09:03:12;;;;;;;13.48;5.88;;;13.20;99.90;;;;;;5051250;28;20113;-85
2021/10/30 09:05:39;;;;;;;11.35;5.82;;;13.10;99.90;;;;;;5032984;28;20025;-85
2021/10/30 09:08:07;;;;;;;12.27;5.80;;;13.20;99.90;;;;;;5051602;28;20036;-85
2021/10/30 09:10:43;;;;;;;10.30;5.00;;;13.20;99.90;;;;;;5052697;28;20108;-85
2021/10/30 09:13:11;;;;;;;7.95;5.07;;;13.20;99.90;;;;;;5052448;28;20032;-84
2021/10/30 09:15:40;;;;;;;9.30;5.03;;;13.20;99.90;;;;;;5052159;28;20033;-84
2021/10/30 09:18:29;;;;;;;9.45;5.22;;;13.30;99.90;;;;;;5051269;28;20040;-86
2021/10/30 09:21:12;;;;;;;9.02;4.85;;;13.30;99.90;;;;;;5050083;28;20036;-85
2021/10/30 09:23:41;;;;;;;12.23;7.80;;;13.20;99.90;;;;;;5032517;28;20079;-84
2021/10/30 09:26:08;;;;;;;7.97;5.25;;;13.30;99.90;;;;;;5031769;28;20033;-85
2021/10/30 09:28:36;;;;;;;6.78;4.75;;;13.30;99.90;;;;;;5032902;28;20099;-84
2021/10/30 09:31:12;;;;;;;7.80;4.85;;;13.20;99.90;;;;;;5031972;28;20113;-89
2021/10/30 09:33:52;;;;;;;8.43;5.13;;;13.20;99.90;;;;;;5032423;28;20029;-87
2021/10/30 09:36:18;;;;;;;10.45;4.85;;;13.20;99.90;;;;;;5049730;28;20142;-87
2021/10/30 09:38:46;;;;;;;9.63;5.50;;;13.20;99.90;;;;;;5032787;28;20037;-86
2021/10/30 09:41:36;;;;;;;7.03;4.75;;;13.20;99.90;;;;;;5032462;28;20484;-88
2021/10/30 09:44:06;;;;;;;8.48;4.80;;;13.20;99.90;;;;;;5032631;28;20032;-87
2021/10/30 09:46:35;;;;;;;9.30;4.22;;;13.20;99.90;;;;;;5032273;28;20044;-86
2021/10/30 09:49:24;;;;;;;6.65;4.25;;;13.20;99.90;;;;;;5032712;28;20063;-88
2021/10/30 09:51:53;;;;;;;13.05;6.00;;;13.30;99.90;;;;;;5032673;28;20066;-86
2021/10/30 09:54:40;;;;;;;7.85;6.00;;;13.20;99.90;;;;;;5032782;28;20099;-86
2021/10/30 09:57:07;;;;;;;12.13;7.43;;;13.30;99.90;;;;;;5048942;28;20119;-86
2021/10/30 09:59:41;;;;;;;10.05;6.78;;;13.30;99.90;;;;;;5031941;28;20029;-85
2021/10/30 10:02:08;;;;;;;10.93;7.10;;;13.30;99.90;;;;;;5049883;28;20055;-86
2021/10/30 10:04:39;;;;;;;9.20;5.90;;;13.30;99.90;;;;;;5035169;28;20446;-86
2021/10/30 10:07:12;;;;;;;7.00;4.85;;;13.30;99.90;;;;;;5036141;28;20036;-85
2021/10/30 10:09:38;;;;;;;6.97;4.65;;;13.30;99.90;;;;;;5052435;28;20060;-86
2021/10/30 10:12:04;;;;;;;9.65;4.50;;;13.30;99.90;;;;;;5053303;28;20067;-86
2021/10/30 10:14:31;;;;;;;7.43;4.28;;;13.30;99.90;;;;;;5036513;28;20032;-85
2021/10/30 10:16:57;;;;;;;9.55;4.90;;;13.30;99.90;;;;;;5035909;28;20110;-84
2021/10/30 10:19:23;;;;;;;7.38;4.80;;;13.30;99.90;;;;;;5035915;28;20095;-85
2021/10/30 10:21:52;;;;;;;10.00;4.32;;;13.30;99.90;;;;;;5036556;28;20366;-86
2021/10/30 10:24:20;;;;;;;9.60;5.05;;;13.30;99.90;;;;;;5053182;28;20028;-85
2021/10/30 10:26:57;;;;;;;8.48;4.60;;;13.40;99.90;;;;;;5037354;28;20025;-85
2021/10/30 10:29:35;;;;;;;7.50;4.50;;;13.40;99.90;;;;;;5037458;28;20028;-86
2021/10/30 10:32:07;;;;;;;8.55;4.40;;;13.40;99.90;;;;;;5037223;28;20466;-85
2021/10/30 10:34:38;;;;;;;6.65;4.25;;;13.40;99.90;;;;;;5037497;28;20165;-85
2021/10/30 10:37:17;;;;;;;8.68;4.55;;;13.40;99.90;;;;;;5055779;28;20102;-84
2021/10/30 10:39:52;;;;;;;;;;;13.40;99.90;;;;;;5039010;28;20127;-84
2021/10/30 10:42:33;;;;;;;8.50;4.63;;;13.40;99.90;;;;;;5055654;28;19955;-84
2021/10/30 10:45:00;;;;;;;8.00;4.30;;;13.40;99.90;;;;;;5040938;28;20029;-84
2021/10/30 10:47:35;;;;;;;7.72;4.50;;;13.40;99.90;;;;;;5040242;28;20029;-84
2021/10/30 10:50:27;;;;;;;7.47;4.60;;;13.40;99.90;;;;;;5057050;28;20029;-85
2021/10/30 10:53:03;;;;;;;8.18;4.50;;;13.40;99.90;;;;;;5061072;28;20033;-85
2021/10/30 10:55:31;;;;;;;7.78;4.72;;;13.40;99.90;;;;;;5061074;28;20025;-85
2021/10/30 10:58:02;;;;;;;9.07;4.90;;;13.40;99.90;;;;;;5041972;28;20039;-85
2021/10/30 11:00:29;;;;;;;9.23;4.85;;;13.40;99.90;;;;;;5036517;28;20024;-84
2021/10/30 11:02:55;;;;;;;6.32;4.75;;;13.40;99.90;;;;;;5041833;28;20028;-85
2021/10/30 11:05:21;;;;;;;8.25;4.97;;;13.40;99.90;;;;;;5055796;28;20048;-84
2021/10/30 11:07:46;;;;;;;8.70;5.32;;;13.40;99.90;;;;;;5056883;28;20033;-84
2021/10/30 11:10:20;;;;;;;10.90;5.25;;;13.30;99.90;;;;;;5060830;28;20056;-85
2021/10/30 11:13:05;;;;;;;9.15;5.00;;;13.30;99.90;;;;;;5043020;28;20040;-82
2021/10/30 11:15:54;;;;;;;8.02;5.10;;;13.30;99.90;;;;;;5041504;28;20033;-83
2021/10/30 11:19:09;;;;;;;7.18;4.78;;;13.30;99.90;;;;;;5041738;28;20045;-82
2021/10/30 11:21:29;;;;;;;7.60;4.90;;;13.30;99.90;;;;;;5050765;28;20033;-83
2021/10/30 11:23:57;;;;;;;7.82;5.00;;;13.30;99.90;;;;;;5040919;28;20047;-85
2021/10/30 11:26:33;;;;;;;8.55;5.28;;;13.30;99.90;;;;;;5040300;28;20347;-85
2021/10/30 11:29:09;;;;;;;9.75;5.07;;;13.30;99.90;;;;;;5052208;28;20056;-84
2021/10/30 11:31:36;;;;;;;8.18;4.80;;;13.30;99.90;;;;;;5047678;28;20420;-85
2021/10/30 11:34:07;;;;;;;7.40;5.18;;;13.30;99.90;;;;;;5054613;28;20076;-85
2021/10/30 11:36:36;;;;;;;7.63;4.60;;;13.30;99.90;;;;;;5038214;28;20032;-86
2021/10/30 11:39:04;;;;;;;9.65;4.70;;;13.20;99.90;;;;;;5069524;28;20036;-84
2021/10/30 11:41:32;;;;;;;7.50;5.10;;;13.20;99.90;;;;;;5042568;28;20406;-85
2021/10/30 11:44:10;;;;;;;10.30;5.40;;;13.20;99.90;;;;;;5037075;28;20025;-85
2021/10/30 11:46:45;;;;;;;11.93;6.23;;;13.30;99.90;;;;;;5038537;28;20033;-85
2021/10/30 11:49:35;;;;;;;11.98;6.85;;;13.20;99.90;;;;;;5037662;28;20094;-86
2021/10/30 11:52:04;;;;;;;11.80;7.13;;;13.30;99.90;;;;;;5036895;28;20378;-85
2021/10/30 11:54:31;;;;;;;10.02;6.53;;;13.30;99.90;;;;;;5053420;28;20474;-86
2021/10/30 11:56:58;;;;;;;10.05;6.43;;;13.30;99.90;;;;;;5038740;28;20067;-86
2021/10/30 11:59:24;;;;;;;10.07;5.82;;;13.30;99.90;;;;;;5055812;28;20029;-84
2021/10/30 12:01:50;;;;;;;8.25;5.13;;;13.20;99.90;;;;;;5038486;28;20025;-84
2021/10/30 12:04:20;;;;;;;9.48;5.25;;;13.30;99.90;;;;;;5060966;28;20100;-85
2021/10/30 12:06:53;;;;;;;9.15;4.72;;;13.30;99.90;;;;;;5039632;28;20033;-87
2021/10/30 12:09:27;;;;;;;7.93;5.80;;;13.30;99.90;;;;;;5055886;28;20075;-85
2021/10/30 12:12:01;;;;;;;9.55;5.35;;;13.30;99.90;;;;;;5041624;28;20053;-85
2021/10/30 12:14:29;;;;;;;11.73;5.82;;;13.30;99.90;;;;;;5038505;28;20029;-85
2021/10/30 12:16:58;;;;;;;8.68;5.25;;;13.20;99.90;;;;;;5042560;28;20033;-85
2021/10/30 12:19:26;;;;;;;;;;;13.30;99.90;;;;;;5057793;28;20079;-85
2021/10/30 12:22:06;;;;;;;10.40;5.35;;;13.30;99.90;;;;;;5058243;28;19908;-84
2021/10/30 12:24:32;;;;;;;8.95;5.50;;;13.40;99.90;;;;;;5039053;28;20025;-84
2021/10/30 12:27:03;;;;;;;9.73;5.18;;;13.40;99.90;;;;;;5057562;28;20097;-85
2021/10/30 12:29:30;;;;;;;9.88;5.63;;;13.40;99.90;;;;;;5039859;28;20037;-84
2021/10/30 12:32:06;;;;;;;8.90;5.15;;;13.50;99.90;;;;;;5040587;28;20032;-84
2021/10/30 12:34:34;;;;;;;7.25;5.10;;;13.40;99.90;;;;;;5041024;28;20043;-85
2021/10/30 12:37:12;;;;;;;10.00;5.60;;;13.40;99.90;;;;;;5056003;28;20060;-84
2021/10/30 12:39:40;;;;;;;8.73;5.40;;;13.50;99.90;;;;;;5039266;28;20029;-85
2021/10/30 12:42:14;;;;;;;8.60;5.45;;;13.50;99.90;;;;;;5057360;28;20332;-85
2021/10/30 12:44:40;;;;;;;8.95;6.18;;;13.50;99.90;;;;;;5057862;28;20117;-85
2021/10/30 12:47:14;;;;;;;9.75;5.22;;;13.50;99.90;;;;;;5057011;28;20116;-87
2021/10/30 12:49:43;;;;;;;9.80;5.55;;;13.50;99.90;;;;;;5055580;28;20033;-85
2021/10/30 12:52:13;;;;;;;10.93;5.38;;;13.50;99.90;;;;;;5072015;28;20047;-84
2021/10/30 12:54:54;;;;;;;8.43;5.00;;;13.50;99.90;;;;;;5055741;28;20063;-85
2021/10/30 12:57:25;;;;;;;9.32;5.70;;;13.60;99.90;;;;;;5035224;28;20078;-84
2021/10/30 13:00:20;;;;;;;8.18;4.88;;;13.60;99.90;;;;;;5031146;28;20025;-85
2021/10/30 13:02:46;;;;;;;9.50;4.78;;;13.60;99.90;;;;;;5059047;28;20042;-85